This is the latest recevied weather packets stored in our database for station/object Waldburg. If no packets are shown the sender has not sent any weather packets the latest 10 day(s).
| Time | Temp. | Humidity | Pressure | Rain* | Wind** | Luminosity | Snow |
|---|---|---|---|---|---|---|---|
| 1777645930 | 21.11° C | 26% | 1022.8 hPa | 0 mm | - | - | - |
| 1777644130 | 21.11° C | 26% | 1023 hPa | 0 mm | - | - | - |
| 1777642330 | 20.56° C | 27% | 1023.2 hPa | 0 mm | - | - | - |
| 1777640531 | 20.56° C | 28% | 1023.4 hPa | 0 mm | - | - | - |
| 1777638736 | 20.56° C | 30% | 1023.8 hPa | 0 mm | - | - | - |
| 1777636931 | 20° C | 31% | 1023.8 hPa | 0 mm | - | - | - |
| 1777635130 | 18.89° C | 35% | 1024.1 hPa | 0 mm | - | - | - |
| 1777633331 | 17.78° C | 39% | 1024.4 hPa | 0 mm | - | - | - |
| 1777631531 | 16.67° C | 38% | 1024.7 hPa | 0 mm | - | - | - |
| 1777629731 | 16.67° C | 37% | 1024.9 hPa | 0 mm | - | - | - |
| 1777627931 | 16.11° C | 44% | 1024.9 hPa | 0 mm | - | - | - |
| 1777626132 | 15.56° C | 44% | 1025 hPa | 0 mm | - | - | - |
| 1777624331 | 15° C | 43% | 1024.9 hPa | 0 mm | - | - | - |
| 1777622532 | 12.78° C | 46% | 1024.9 hPa | 0 mm | - | - | - |
| 1777620733 | 10.56° C | 48% | 1025 hPa | 0 mm | - | - | - |
| 1777618930 | 8.89° C | 51% | 1025 hPa | 0 mm | - | - | - |
| 1777617131 | 7.22° C | 53% | 1024.7 hPa | 0 mm | - | - | - |
| 1777615333 | 5.56° C | 55% | 1024.5 hPa | 0 mm | - | - | - |
| 1777613531 | 3.89° C | 54% | 1024.2 hPa | 0 mm | - | - | - |
| 1777611731 | 3.89° C | 52% | 1023.8 hPa | 0 mm | - | - | - |
| 1777609931 | 3.89° C | 49% | 1023.5 hPa | 0 mm | - | - | - |
| 1777608131 | 4.44° C | 47% | 1023.4 hPa | 0 mm | - | - | - |
| 1777606332 | 4.44° C | 45% | 1023.3 hPa | 0 mm | - | - | - |
| 1777604532 | 5° C | 43% | 1023.4 hPa | 0 mm | - | - | - |
| 1777602733 | 5° C | 44% | 1023.5 hPa | 0 mm | - | - | - |
* Rain since midnight (hover to see other rain measurements)
** Current wind speed in m/s (hover to see current wind gust speed)